Time;durP1;ratioP1;P1;durP2;ratioP2;P2;SDS_P1;SDS_P2;PMS_P1;PMS_P2;Temp;Humidity;BMP_temperature;BMP_pressure;BME280_temperature;BME280_humidity;BME280_pressure;Samples;Min_cycle;Max_cycle;Signal;HPM_P1;HPM_P2
2021/12/29 00:00:27;;;;;;;12.35;2.50;;;9.60;99.90;;;;;;4915073;28;20398;-82
2021/12/29 00:02:54;;;;;;;13.05;2.40;;;9.50;99.90;;;;;;4917483;28;20032;-80
2021/12/29 00:05:21;;;;;;;11.80;2.03;;;9.60;99.90;;;;;;4915584;28;20028;-80
2021/12/29 00:07:46;;;;;;;14.23;2.10;;;9.70;99.90;;;;;;4918380;28;20036;-83
2021/12/29 00:10:14;;;;;;;10.80;2.17;;;9.60;99.90;;;;;;4913553;28;20029;-81
2021/12/29 00:12:41;;;;;;;7.60;2.47;;;9.60;99.90;;;;;;4922285;28;20056;-79
2021/12/29 00:15:12;;;;;;;10.93;2.33;;;9.50;99.90;;;;;;4909922;28;20054;-80
2021/12/29 00:17:40;;;;;;;9.13;1.88;;;9.40;99.90;;;;;;4913725;28;20047;-80
2021/12/29 00:20:07;;;;;;;15.07;2.17;;;9.60;99.90;;;;;;4912298;28;20044;-79
2021/12/29 00:22:34;;;;;;;13.43;2.30;;;9.60;99.90;;;;;;4914535;28;20063;-80
2021/12/29 00:24:59;;;;;;;8.77;1.83;;;9.50;99.90;;;;;;4920127;28;20028;-83
2021/12/29 00:27:25;;;;;;;6.03;1.85;;;9.60;99.90;;;;;;4913603;28;20117;-84
2021/12/29 00:29:50;;;;;;;7.88;1.77;;;9.70;99.90;;;;;;4921182;28;20055;-83
2021/12/29 00:32:16;;;;;;;7.63;1.92;;;;;;;;;;4915340;28;20036;-83
2021/12/29 00:34:42;;;;;;;9.00;1.92;;;9.60;99.90;;;;;;4916939;28;20024;-80
2021/12/29 00:37:08;;;;;;;10.00;2.08;;;9.60;99.90;;;;;;4913917;28;20407;-78
2021/12/29 00:39:33;;;;;;;12.88;1.90;;;9.50;99.90;;;;;;4918565;28;20032;-83
2021/12/29 00:41:59;;;;;;;8.68;1.98;;;9.50;99.90;;;;;;4920616;28;20024;-81
2021/12/29 00:44:25;;;;;;;8.90;1.85;;;9.50;99.90;;;;;;4918102;28;20379;-84
2021/12/29 00:46:53;;;;;;;7.88;1.95;;;9.60;99.90;;;;;;4917753;28;20032;-83
2021/12/29 00:49:20;;;;;;;7.63;1.90;;;9.50;99.90;;;;;;4920141;28;20070;-82
2021/12/29 00:51:47;;;;;;;12.00;1.60;;;9.60;99.90;;;;;;4913703;28;20032;-82
2021/12/29 00:54:13;;;;;;;11.05;1.95;;;9.50;99.90;;;;;;4916503;28;20036;-80
2021/12/29 00:56:39;;;;;;;8.15;1.67;;;9.50;99.90;;;;;;4914689;28;20040;-81
2021/12/29 00:59:05;;;;;;;10.68;2.03;;;9.50;99.90;;;;;;4914268;28;20043;-79
2021/12/29 01:01:31;;;;;;;13.55;2.78;;;;;;;;;;4911510;28;20060;-82
2021/12/29 01:03:56;;;;;;;7.22;1.30;;;9.50;99.90;;;;;;4911932;28;20029;-80
2021/12/29 01:06:22;;;;;;;7.43;1.98;;;9.70;99.90;;;;;;4913951;28;20485;-82
2021/12/29 01:08:48;;;;;;;10.43;2.00;;;9.70;99.90;;;;;;4914658;28;20035;-80
2021/12/29 01:11:14;;;;;;;7.93;1.70;;;9.60;99.90;;;;;;4909256;28;20054;-82
2021/12/29 01:13:46;;;;;;;10.00;2.00;;;9.60;99.90;;;;;;4912034;28;20036;-80
2021/12/29 01:16:36;;;;;;;9.38;1.98;;;9.50;99.90;;;;;;4912627;28;20031;-83
2021/12/29 01:19:08;;;;;;;8.90;1.80;;;9.50;99.90;;;;;;4915374;28;20039;-80
2021/12/29 01:21:34;;;;;;;6.22;1.80;;;9.70;99.90;;;;;;4909155;28;20400;-80
2021/12/29 01:24:01;;;;;;;5.60;1.55;;;9.60;99.90;;;;;;4915966;28;20107;-81
2021/12/29 01:26:27;;;;;;;8.57;1.83;;;9.50;99.90;;;;;;4915828;28;20028;-81
2021/12/29 01:28:52;;;;;;;6.63;1.73;;;9.50;99.90;;;;;;4913623;28;20086;-81
2021/12/29 01:31:18;;;;;;;7.60;1.90;;;9.50;99.90;;;;;;4918363;28;20019;-79
2021/12/29 01:33:44;;;;;;;7.25;2.17;;;10.50;99.90;;;;;;4914118;28;20028;-79
2021/12/29 01:36:09;;;;;;;7.95;1.83;;;9.50;99.90;;;;;;4923458;28;20392;-78
2021/12/29 01:38:35;;;;;;;10.82;1.80;;;9.40;99.90;;;;;;4915226;28;20579;-80
2021/12/29 01:41:01;;;;;;;4.78;1.52;;;9.50;99.90;;;;;;4917308;28;20079;-79
2021/12/29 01:43:26;;;;;;;8.23;1.90;;;9.50;99.90;;;;;;4922165;28;20036;-82
2021/12/29 01:45:52;;;;;;;8.88;1.88;;;9.60;99.90;;;;;;4912557;28;20028;-79
2021/12/29 01:48:17;;;;;;;6.18;1.58;;;9.50;99.90;;;;;;4909962;28;20020;-81
2021/12/29 01:50:51;;;;;;;30.60;3.28;;;9.50;99.90;;;;;;4910736;28;20036;-81
2021/12/29 01:53:23;;;;;;;8.50;1.88;;;9.60;99.90;;;;;;4917869;28;20032;-79
2021/12/29 01:55:51;;;;;;;5.35;1.25;;;9.60;99.90;;;;;;4929948;28;20026;-80
2021/12/29 01:58:18;;;;;;;5.38;1.25;;;9.60;99.90;;;;;;4924021;28;20075;-80
2021/12/29 02:00:45;;;;;;;10.55;1.42;;;11.90;99.90;;;;;;4929343;28;20142;-78
2021/12/29 02:03:11;;;;;;;6.20;1.65;;;9.70;99.90;;;;;;4915890;28;20091;-82
2021/12/29 02:05:37;;;;;;;7.30;1.50;;;9.70;99.90;;;;;;4931482;28;20043;-80
2021/12/29 02:08:05;;;;;;;5.00;1.40;;;;;;;;;;4916655;28;20036;-80
2021/12/29 02:10:36;;;;;;;8.55;1.63;;;9.80;99.90;;;;;;4913427;28;20028;-81
2021/12/29 02:13:01;;;;;;;7.72;1.70;;;9.90;99.90;;;;;;4923227;28;20035;-82
2021/12/29 02:15:27;;;;;;;7.20;1.33;;;9.70;99.90;;;;;;4920464;28;20048;-80
2021/12/29 02:17:53;;;;;;;4.65;1.27;;;9.70;99.90;;;;;;4920933;28;20713;-81
2021/12/29 02:20:20;;;;;;;6.15;1.40;;;9.60;99.90;;;;;;4922053;28;20040;-86
2021/12/29 02:22:51;;;;;;;2.05;1.15;;;9.60;99.90;;;;;;4921052;28;20385;-79
2021/12/29 02:27:44;;;;;;;2.25;0.93;;;12.30;99.90;;;;;;4925421;28;20030;-82
2021/12/29 02:30:11;;;;;;;5.45;1.25;;;9.60;99.90;;;;;;4926108;28;20039;-78
2021/12/29 02:32:37;;;;;;;5.20;1.05;;;9.60;99.90;;;;;;4920215;28;20032;-78
2021/12/29 02:35:03;;;;;;;7.40;1.50;;;10.00;99.90;;;;;;4921420;28;20032;-79
2021/12/29 02:37:29;;;;;;;5.63;1.05;;;9.70;99.90;;;;;;4919054;28;20044;-80
2021/12/29 02:39:55;;;;;;;5.65;1.50;;;10.30;99.90;;;;;;4918282;28;20036;-81
2021/12/29 02:42:28;;;;;;;2.35;1.05;;;9.80;99.90;;;;;;4916129;28;20032;-80
2021/12/29 02:44:54;;;;;;;5.57;1.20;;;9.80;99.90;;;;;;4924533;28;20050;-79
2021/12/29 02:47:20;;;;;;;6.38;1.63;;;9.70;99.90;;;;;;4922752;28;20111;-80
2021/12/29 02:49:46;;;;;;;7.63;1.50;;;9.80;99.90;;;;;;4934576;28;20045;-80
2021/12/29 02:52:14;;;;;;;4.97;1.02;;;9.70;99.90;;;;;;4918184;28;20400;-81
2021/12/29 02:54:40;;;;;;;5.53;1.27;;;9.70;99.90;;;;;;4930796;28;20057;-78
2021/12/29 02:57:07;;;;;;;2.63;0.90;;;9.80;99.90;;;;;;4915708;28;20036;-83
2021/12/29 02:59:33;;;;;;;5.57;1.10;;;9.80;99.90;;;;;;4924868;28;20060;-81
2021/12/29 03:02:04;;;;;;;6.78;0.98;;;9.80;99.90;;;;;;4914932;28;20371;-81
2021/12/29 03:04:30;;;;;;;2.53;0.98;;;9.90;99.90;;;;;;4930514;28;20031;-79
2021/12/29 03:06:55;;;;;;;4.35;1.00;;;9.90;99.90;;;;;;4916637;28;20032;-81
2021/12/29 03:09:21;;;;;;;2.15;0.88;;;10.00;99.90;;;;;;4926637;28;20030;-81
2021/12/29 03:11:47;;;;;;;7.55;1.45;;;9.90;99.90;;;;;;4922832;28;20032;-81
2021/12/29 03:14:14;;;;;;;1.90;0.82;;;9.80;99.90;;;;;;4919841;28;20043;-80
2021/12/29 03:16:40;;;;;;;4.50;1.05;;;9.70;99.90;;;;;;4915988;28;20032;-80
2021/12/29 03:19:06;;;;;;;2.97;1.00;;;9.70;99.90;;;;;;4919865;28;20107;-82
2021/12/29 03:21:34;;;;;;;3.88;1.13;;;9.70;99.90;;;;;;4916050;28;20032;-82
2021/12/29 03:24:00;;;;;;;2.58;1.00;;;9.90;99.90;;;;;;4926668;28;20038;-81
2021/12/29 03:26:28;;;;;;;4.75;1.23;;;9.70;99.90;;;;;;4935871;28;20034;-81
2021/12/29 03:28:54;;;;;;;3.38;1.20;;;9.70;99.90;;;;;;4916399;28;20036;-80
2021/12/29 03:31:21;;;;;;;4.85;1.00;;;9.70;99.90;;;;;;4935151;28;20460;-80
2021/12/29 03:33:48;;;;;;;4.22;0.88;;;9.60;99.90;;;;;;4919135;28;20028;-80
2021/12/29 03:36:14;;;;;;;4.43;1.40;;;9.60;99.90;;;;;;4922817;28;20434;-81
2021/12/29 03:38:41;;;;;;;5.15;1.15;;;9.70;99.90;;;;;;4924236;28;20078;-81
2021/12/29 03:41:10;;;;;;;4.43;1.08;;;9.70;99.90;;;;;;4927293;28;20129;-81
2021/12/29 03:43:36;;;;;;;3.20;1.00;;;9.60;99.90;;;;;;4914080;28;20028;-81
2021/12/29 03:46:04;;;;;;;4.57;1.20;;;9.50;99.90;;;;;;4921077;28;20268;-82
2021/12/29 03:48:31;;;;;;;4.45;1.10;;;9.50;99.90;;;;;;4912388;28;20028;-79
2021/12/29 03:50:58;;;;;;;2.38;0.90;;;9.40;99.90;;;;;;4919547;28;20051;-79
2021/12/29 03:53:24;;;;;;;2.40;0.80;;;9.40;99.90;;;;;;4921269;28;20028;-78
2021/12/29 03:55:51;;;;;;;3.85;1.13;;;9.40;99.90;;;;;;4914093;28;20112;-80
2021/12/29 03:58:18;;;;;;;8.23;0.90;;;9.40;99.90;;;;;;4912562;28;20031;-81
2021/12/29 04:00:45;;;;;;;3.42;1.25;;;9.40;99.90;;;;;;4913145;28;20416;-80
2021/12/29 04:03:11;;;;;;;4.03;1.55;;;9.40;99.90;;;;;;4931795;28;20040;-81
2021/12/29 04:05:36;;;;;;;3.08;0.85;;;9.40;99.90;;;;;;4916195;28;20036;-80
2021/12/29 04:08:03;;;;;;;1.98;1.00;;;9.40;99.90;;;;;;4914470;28;20036;-80
2021/12/29 04:10:29;;;;;;;3.22;0.90;;;9.50;99.90;;;;;;4926663;28;20028;-80
2021/12/29 04:12:55;;;;;;;2.95;0.90;;;9.50;99.90;;;;;;4916196;28;20058;-80
2021/12/29 04:15:20;;;;;;;3.33;0.98;;;9.40;99.90;;;;;;4910518;28;20477;-80
2021/12/29 04:17:48;;;;;;;2.88;0.90;;;9.50;99.90;;;;;;4912724;28;20037;-80
2021/12/29 04:23:05;;;;;;;3.47;1.00;;;9.50;99.90;;;;;;4910270;28;20147;-79
2021/12/29 04:25:34;;;;;;;3.83;0.90;;;9.50;99.90;;;;;;4913658;28;20071;-80
2021/12/29 04:28:01;;;;;;;2.63;1.00;;;9.50;99.90;;;;;;4913392;28;20119;-80
2021/12/29 04:30:27;;;;;;;3.22;0.80;;;9.90;99.90;;;;;;4921133;28;20032;-80
2021/12/29 04:32:53;;;;;;;1.90;0.90;;;9.50;99.90;;;;;;4912560;28;20073;-82
2021/12/29 04:35:20;;;;;;;3.03;0.70;;;9.50;99.90;;;;;;4927469;28;20052;-83
2021/12/29 04:37:47;;;;;;;2.05;0.70;;;9.50;99.90;;;;;;4930425;28;20024;-83
2021/12/29 04:40:13;;;;;;;2.90;0.75;;;9.50;99.90;;;;;;4932669;28;20052;-83
2021/12/29 04:42:38;;;;;;;2.40;0.70;;;9.50;99.90;;;;;;4929155;28;20024;-85
2021/12/29 04:45:05;;;;;;;2.53;0.70;;;9.40;99.90;;;;;;4928302;28;20030;-81
2021/12/29 04:47:31;;;;;;;1.10;0.50;;;9.40;99.90;;;;;;4937558;28;20067;-85
2021/12/29 04:50:00;;;;;;;1.90;0.80;;;9.50;99.90;;;;;;4931047;28;20020;-83
2021/12/29 04:52:28;;;;;;;2.47;0.70;;;9.40;99.90;;;;;;4929969;28;20117;-78
2021/12/29 04:54:54;;;;;;;3.28;0.88;;;9.40;99.90;;;;;;4926492;28;20524;-84
2021/12/29 04:57:19;;;;;;;2.08;0.90;;;9.60;99.90;;;;;;4925884;28;20586;-81
2021/12/29 04:59:45;;;;;;;4.80;1.00;;;9.40;99.90;;;;;;4928560;28;20036;-81
2021/12/29 05:02:11;;;;;;;2.83;0.85;;;9.50;99.90;;;;;;4923008;28;20036;-82
2021/12/29 05:04:45;;;;;;;1.90;0.75;;;9.40;99.90;;;;;;4910344;28;20164;-77
2021/12/29 05:09:56;;;;;;;2.17;0.70;;;9.40;99.90;;;;;;4912026;28;20054;-79
2021/12/29 05:12:22;;;;;;;2.95;0.90;;;9.30;99.90;;;;;;4917938;28;20032;-80
2021/12/29 05:14:48;;;;;;;3.00;0.90;;;9.30;99.90;;;;;;4911603;28;20040;-82
2021/12/29 05:17:14;;;;;;;5.78;1.40;;;9.20;99.90;;;;;;4913787;28;20040;-80
2021/12/29 05:19:39;;;;;;;3.15;1.05;;;9.20;99.90;;;;;;4913912;28;20036;-80
2021/12/29 05:22:05;;;;;;;7.93;1.48;;;9.30;99.90;;;;;;4912567;28;20115;-80
2021/12/29 05:24:31;;;;;;;4.78;1.58;;;9.30;99.90;;;;;;4911724;28;20043;-78
2021/12/29 05:26:57;;;;;;;11.88;2.70;;;9.10;99.90;;;;;;4915500;28;20112;-81
2021/12/29 05:29:22;;;;;;;6.32;1.45;;;9.20;99.90;;;;;;4913947;28;20039;-78
2021/12/29 05:31:48;;;;;;;10.10;2.05;;;9.20;99.90;;;;;;4921487;28;20119;-79
2021/12/29 05:34:14;;;;;;;12.45;1.90;;;9.20;99.90;;;;;;4922494;28;20028;-79
2021/12/29 05:36:39;;;;;;;5.05;1.42;;;9.20;99.90;;;;;;4918335;28;20539;-79
2021/12/29 05:39:07;;;;;;;8.57;1.58;;;9.20;99.90;;;;;;4909389;28;20091;-79
2021/12/29 05:41:32;;;;;;;11.13;2.17;;;9.20;99.90;;;;;;4913542;28;20036;-78
2021/12/29 05:43:58;;;;;;;9.23;1.67;;;9.20;99.90;;;;;;4923749;28;20040;-80
2021/12/29 05:46:24;;;;;;;7.10;1.90;;;9.30;99.90;;;;;;4921153;28;20047;-81
2021/12/29 05:48:49;;;;;;;10.55;1.70;;;9.30;99.90;;;;;;4922111;28;20084;-81
2021/12/29 05:51:15;;;;;;;10.00;2.97;;;9.30;99.90;;;;;;4916275;28;20088;-81
2021/12/29 05:53:41;;;;;;;10.82;2.00;;;9.20;99.90;;;;;;4912030;28;20464;-79
2021/12/29 05:56:08;;;;;;;9.52;1.60;;;9.20;99.90;;;;;;4916450;28;20052;-81
2021/12/29 05:58:34;;;;;;;9.82;3.47;;;9.30;99.90;;;;;;4912432;28;20028;-78
2021/12/29 06:01:00;;;;;;;7.95;1.70;;;9.20;99.90;;;;;;4932413;28;20114;-79
2021/12/29 06:03:26;;;;;;;14.77;2.10;;;9.70;99.90;;;;;;4927789;28;20461;-78
2021/12/29 06:05:51;;;;;;;7.85;1.75;;;9.80;99.90;;;;;;4923028;28;20498;-80
2021/12/29 06:08:17;;;;;;;11.00;1.88;;;9.20;99.90;;;;;;4919892;28;20029;-81
2021/12/29 06:10:43;;;;;;;11.50;2.50;;;9.80;99.90;;;;;;4912250;28;20032;-80
2021/12/29 06:13:09;;;;;;;8.07;2.00;;;9.40;99.90;;;;;;4920951;28;20035;-78
2021/12/29 06:15:34;;;;;;;7.90;2.22;;;9.30;99.90;;;;;;4915102;28;20041;-82
2021/12/29 06:18:00;;;;;;;10.77;2.22;;;9.30;99.90;;;;;;4924176;28;20039;-80
2021/12/29 06:20:26;;;;;;;10.25;2.00;;;9.30;99.90;;;;;;4933382;28;20036;-79
2021/12/29 06:22:51;;;;;;;14.95;2.78;;;9.30;99.90;;;;;;4914235;28;20045;-82
2021/12/29 06:25:18;;;;;;;9.90;2.13;;;9.30;99.90;;;;;;4923312;28;20024;-80
2021/12/29 06:27:43;;;;;;;8.52;1.95;;;9.30;99.90;;;;;;4914973;28;20559;-78
2021/12/29 06:30:12;;;;;;;11.85;2.00;;;9.30;99.90;;;;;;4914482;28;20036;-79
2021/12/29 06:32:39;;;;;;;9.18;1.80;;;9.30;99.90;;;;;;4913382;28;20064;-80
2021/12/29 06:35:06;;;;;;;9.48;2.00;;;9.30;99.90;;;;;;4913705;28;20028;-79
2021/12/29 06:37:32;;;;;;;8.05;1.75;;;9.30;99.90;;;;;;4916310;28;20110;-80
2021/12/29 06:39:58;;;;;;;11.15;2.35;;;9.30;99.90;;;;;;4912991;28;20115;-78
2021/12/29 06:42:23;;;;;;;9.55;1.77;;;9.30;99.90;;;;;;4912332;28;20054;-83
2021/12/29 06:44:49;;;;;;;15.40;2.67;;;9.30;99.90;;;;;;4913434;28;20027;-79
2021/12/29 06:47:15;;;;;;;10.10;2.00;;;9.50;99.90;;;;;;4913716;28;20069;-81
2021/12/29 06:49:41;;;;;;;9.65;2.22;;;9.30;99.90;;;;;;4934226;28;20072;-80
2021/12/29 06:52:07;;;;;;;7.85;1.88;;;9.30;99.90;;;;;;4919775;28;20024;-79
2021/12/29 06:54:35;;;;;;;6.55;1.60;;;10.10;99.90;;;;;;4915790;28;21621;-78
2021/12/29 06:57:01;;;;;;;5.53;1.55;;;9.30;99.90;;;;;;4915649;28;20036;-80
2021/12/29 06:59:26;;;;;;;7.35;1.65;;;9.30;99.90;;;;;;4913433;28;20405;-81
2021/12/29 07:01:52;;;;;;;8.95;1.50;;;9.30;99.90;;;;;;4913312;28;20031;-79
2021/12/29 07:04:18;;;;;;;7.22;2.08;;;9.30;99.90;;;;;;4910727;28;20028;-85
2021/12/29 07:06:44;;;;;;;9.00;1.55;;;9.30;99.90;;;;;;4916112;28;20119;-79
2021/12/29 07:09:10;;;;;;;5.72;1.23;;;9.30;99.90;;;;;;4918235;28;20043;-82
2021/12/29 07:11:37;;;;;;;5.25;1.40;;;9.40;99.90;;;;;;4915958;28;20425;-78
2021/12/29 07:14:05;;;;;;;4.88;2.55;;;9.40;99.90;;;;;;4915737;28;20059;-82
2021/12/29 07:16:33;;;;;;;4.20;1.05;;;9.40;99.90;;;;;;4918816;28;20042;-81
2021/12/29 07:18:59;;;;;;;2.75;1.38;;;9.30;99.90;;;;;;4917555;28;20024;-80
2021/12/29 07:21:25;;;;;;;3.22;0.80;;;9.30;99.90;;;;;;4920611;28;20096;-81
2021/12/29 07:23:53;;;;;;;4.38;1.05;;;9.30;99.90;;;;;;4920565;28;20062;-82
2021/12/29 07:26:22;;;;;;;5.57;1.05;;;9.30;99.90;;;;;;4918773;28;20059;-82
2021/12/29 07:28:49;;;;;;;3.45;0.95;;;9.30;99.90;;;;;;4932646;28;20043;-79
2021/12/29 07:31:14;;;;;;;3.92;1.15;;;9.30;99.90;;;;;;4920278;28;20032;-81
2021/12/29 07:33:40;;;;;;;4.35;1.17;;;9.30;99.90;;;;;;4921016;28;20104;-81
2021/12/29 07:36:06;;;;;;;3.17;1.30;;;9.40;99.90;;;;;;4915792;28;20028;-80
2021/12/29 07:38:32;;;;;;;3.95;1.20;;;9.40;99.90;;;;;;4922341;28;20078;-79
2021/12/29 07:40:57;;;;;;;4.85;1.45;;;9.20;99.90;;;;;;4919664;28;20618;-82
2021/12/29 07:43:23;;;;;;;5.18;1.25;;;9.30;99.90;;;;;;4917309;28;20028;-80
2021/12/29 07:45:50;;;;;;;5.90;1.80;;;9.30;99.90;;;;;;4918398;28;20039;-79
2021/12/29 07:48:18;;;;;;;3.15;1.15;;;9.30;99.90;;;;;;4920402;28;20847;-83
2021/12/29 07:50:44;;;;;;;5.32;1.30;;;9.30;99.90;;;;;;4923360;28;20028;-83
2021/12/29 07:53:10;;;;;;;5.80;2.08;;;9.40;99.90;;;;;;4929152;28;20158;-79
2021/12/29 07:55:36;;;;;;;11.15;2.58;;;9.30;99.90;;;;;;4908460;28;20127;-82
2021/12/29 07:58:02;;;;;;;4.65;2.15;;;9.30;99.90;;;;;;4911530;28;20060;-81
2021/12/29 08:00:28;;;;;;;12.48;2.33;;;9.20;99.90;;;;;;4920770;28;20486;-80
2021/12/29 08:02:54;;;;;;;6.40;1.90;;;9.30;99.90;;;;;;4916787;28;20092;-79
2021/12/29 08:05:20;;;;;;;6.63;2.42;;;9.30;99.90;;;;;;4915410;28;20036;-80
2021/12/29 08:07:46;;;;;;;5.75;2.30;;;9.20;99.90;;;;;;4921349;28;20025;-81
2021/12/29 08:10:12;;;;;;;8.27;2.35;;;9.20;99.90;;;;;;4919253;28;20054;-82
2021/12/29 08:12:38;;;;;;;6.97;2.70;;;9.20;99.90;;;;;;4920224;28;20036;-82
2021/12/29 08:15:04;;;;;;;6.65;3.00;;;9.20;99.90;;;;;;4913839;28;20043;-81
2021/12/29 08:17:32;;;;;;;5.35;1.98;;;9.20;99.90;;;;;;4909488;28;20057;-82
2021/12/29 08:19:59;;;;;;;7.32;1.92;;;9.20;99.90;;;;;;4907237;28;20504;-84
2021/12/29 08:22:24;;;;;;;7.75;2.60;;;9.10;99.90;;;;;;4925264;28;20025;-81
2021/12/29 08:24:50;;;;;;;9.35;2.28;;;9.10;99.90;;;;;;4914305;28;20034;-80
2021/12/29 08:27:16;;;;;;;5.90;2.28;;;9.10;99.90;;;;;;4906966;28;20025;-80
2021/12/29 08:29:41;;;;;;;9.43;3.00;;;9.20;99.90;;;;;;4909634;28;20028;-81
2021/12/29 08:32:07;;;;;;;8.35;3.05;;;9.20;99.90;;;;;;4912263;28;20059;-85
2021/12/29 08:34:33;;;;;;;11.43;2.90;;;9.30;99.90;;;;;;4916816;28;20055;-82
2021/12/29 08:36:58;;;;;;;7.47;2.42;;;9.30;99.90;;;;;;4906342;28;20406;-81
2021/12/29 08:39:25;;;;;;;12.80;2.75;;;9.40;99.90;;;;;;4904815;28;20051;-79
2021/12/29 08:41:51;;;;;;;12.85;3.28;;;9.30;99.90;;;;;;4898251;28;20032;-79
2021/12/29 08:44:18;;;;;;;16.27;3.55;;;9.30;99.90;;;;;;4901228;28;20020;-77
2021/12/29 08:46:46;;;;;;;10.40;2.72;;;9.30;99.90;;;;;;4905324;28;20119;-82
2021/12/29 08:49:12;;;;;;;10.68;2.90;;;9.30;99.90;;;;;;4916355;28;20035;-81
2021/12/29 08:51:39;;;;;;;11.40;2.92;;;9.80;99.90;;;;;;4903587;28;20034;-81
2021/12/29 08:54:04;;;;;;;14.18;3.22;;;9.40;99.90;;;;;;4923829;28;20036;-82
2021/12/29 08:56:30;;;;;;;29.90;9.27;;;9.40;99.90;;;;;;4907582;28;20082;-83
2021/12/29 08:58:56;;;;;;;18.10;3.92;;;9.40;99.90;;;;;;4902521;28;20082;-79
2021/12/29 09:01:23;;;;;;;18.77;3.28;;;9.40;99.90;;;;;;4906244;28;20038;-82
2021/12/29 09:03:50;;;;;;;20.58;3.47;;;9.40;99.90;;;;;;4908976;28;20016;-82
2021/12/29 09:06:16;;;;;;;17.58;3.22;;;9.40;99.90;;;;;;4908029;28;20074;-80
2021/12/29 09:08:42;;;;;;;15.75;3.40;;;9.40;99.90;;;;;;4924284;28;20025;-81
2021/12/29 09:11:09;;;;;;;16.65;3.47;;;9.40;99.90;;;;;;4916254;28;20028;-79
2021/12/29 09:13:35;;;;;;;19.92;3.65;;;9.40;99.90;;;;;;4914848;28;20123;-79
2021/12/29 09:16:02;;;;;;;20.17;4.18;;;9.60;99.90;;;;;;4899044;28;20041;-80
2021/12/29 09:18:31;;;;;;;21.13;3.83;;;9.40;99.90;;;;;;4903721;28;20047;-81
2021/12/29 09:21:04;;;;;;;25.02;3.92;;;9.40;99.90;;;;;;4907672;28;20497;-83
2021/12/29 09:23:30;;;;;;;21.30;3.80;;;9.40;99.90;;;;;;4904128;28;20763;-81
2021/12/29 09:25:55;;;;;;;22.20;5.05;;;9.40;99.90;;;;;;4914227;28;20028;-79
2021/12/29 09:28:22;;;;;;;22.65;4.93;;;9.30;99.90;;;;;;4900482;28;20033;-79
2021/12/29 09:30:48;;;;;;;20.30;4.75;;;9.50;99.90;;;;;;4903393;28;20043;-79
2021/12/29 09:33:16;;;;;;;20.70;4.15;;;9.40;99.90;;;;;;4908096;28;20512;-82
2021/12/29 09:35:42;;;;;;;18.42;3.72;;;9.40;99.90;;;;;;4905707;28;20048;-82
2021/12/29 09:38:09;;;;;;;19.27;3.83;;;9.50;99.90;;;;;;4902503;28;20032;-81
2021/12/29 09:40:36;;;;;;;21.25;4.05;;;9.50;99.90;;;;;;4912565;28;20071;-82
2021/12/29 09:43:03;;;;;;;14.68;3.40;;;9.50;99.90;;;;;;4906225;28;21235;-81
2021/12/29 09:45:30;;;;;;;15.45;3.60;;;9.60;99.90;;;;;;4906865;28;20024;-82
2021/12/29 09:47:57;;;;;;;15.20;2.95;;;9.60;99.90;;;;;;4905085;28;20024;-81
2021/12/29 09:50:25;;;;;;;13.18;3.22;;;9.80;99.90;;;;;;4908616;28;20284;-83
2021/12/29 09:52:51;;;;;;;15.05;2.97;;;9.50;99.90;;;;;;4915082;28;20042;-79
2021/12/29 09:55:19;;;;;;;18.48;3.85;;;9.60;99.90;;;;;;4903549;28;20110;-78
2021/12/29 09:57:48;;;;;;;12.95;3.13;;;9.50;99.90;;;;;;4900903;28;20036;-81
2021/12/29 10:00:34;;;;;;;15.00;2.80;;;9.60;99.90;;;;;;4897188;28;20047;-81
2021/12/29 10:03:02;;;;;;;16.00;4.22;;;9.50;99.90;;;;;;4901703;28;20062;-84
2021/12/29 10:05:29;;;;;;;21.13;4.85;;;9.60;99.90;;;;;;4909348;28;20634;-83
2021/12/29 10:08:04;;;;;;;13.00;3.03;;;9.50;99.90;;;;;;4906534;28;20036;-82
2021/12/29 10:10:33;;;;;;;17.65;2.90;;;9.50;99.90;;;;;;4932186;28;20087;-81
2021/12/29 10:13:00;;;;;;;15.50;3.65;;;10.40;99.90;;;;;;4917168;28;20528;-79
2021/12/29 10:15:32;;;;;;;21.70;3.78;;;9.60;99.90;;;;;;4903318;28;20072;-78
2021/12/29 10:18:09;;;;;;;18.77;3.90;;;9.50;99.90;;;;;;4902863;28;20090;-80
2021/12/29 10:20:55;;;;;;;17.58;3.15;;;9.50;99.90;;;;;;4908434;28;20037;-80
2021/12/29 10:23:26;;;;;;;18.38;3.60;;;9.50;99.90;;;;;;4927668;28;20032;-80
2021/12/29 10:25:54;;;;;;;9.88;2.72;;;9.50;99.90;;;;;;4908376;28;20020;-80
2021/12/29 10:28:29;;;;;;;12.18;2.85;;;9.60;99.90;;;;;;4912461;28;20036;-79
2021/12/29 10:31:01;;;;;;;8.73;2.20;;;9.60;99.90;;;;;;4920463;28;20032;-77
2021/12/29 10:33:32;;;;;;;9.88;2.42;;;9.50;99.90;;;;;;4917091;28;20040;-81
2021/12/29 10:35:57;;;;;;;;;;;9.60;99.90;;;;;;4905376;28;20024;-79
2021/12/29 10:38:25;;;;;;;9.70;2.53;;;9.60;99.90;;;;;;4909300;28;20462;-79
2021/12/29 10:40:50;;;;;;;11.25;2.70;;;9.60;99.90;;;;;;4911971;28;20028;-79
2021/12/29 10:43:17;;;;;;;11.55;2.58;;;9.60;99.90;;;;;;4910335;28;20106;-79
2021/12/29 10:45:46;;;;;;;14.13;3.00;;;9.60;99.90;;;;;;4910399;28;20039;-79
2021/12/29 10:48:21;;;;;;;14.45;3.78;;;9.70;99.90;;;;;;4909847;28;20047;-84
2021/12/29 10:50:59;;;;;;;8.85;2.35;;;10.00;99.90;;;;;;4913556;28;20086;-80
2021/12/29 10:53:25;;;;;;;12.50;2.72;;;9.70;99.90;;;;;;4926645;28;20032;-79
2021/12/29 10:55:51;;;;;;;11.20;3.10;;;9.70;99.90;;;;;;4911918;28;20081;-78
2021/12/29 10:58:23;;;;;;;16.00;3.45;;;9.70;99.90;;;;;;4914153;28;20032;-77
2021/12/29 11:01:07;;;;;;;15.45;4.45;;;9.70;99.90;;;;;;4912930;28;20032;-78
2021/12/29 11:03:34;;;;;;;12.32;4.10;;;9.80;99.90;;;;;;4913671;28;20116;-79
2021/12/29 11:06:03;;;;;;;17.83;4.60;;;9.90;99.90;;;;;;4920093;28;20028;-79
2021/12/29 11:08:32;;;;;;;11.65;4.25;;;9.80;99.90;;;;;;4927462;28;20021;-79
2021/12/29 11:11:06;;;;;;;13.32;5.22;;;9.80;99.90;;;;;;4930572;28;20028;-80
2021/12/29 11:13:34;;;;;;;15.65;5.90;;;9.80;99.90;;;;;;4929207;28;20127;-82
2021/12/29 11:16:01;;;;;;;13.68;4.60;;;9.80;99.90;;;;;;4928216;28;20039;-80
2021/12/29 11:18:41;;;;;;;10.20;4.20;;;9.90;99.90;;;;;;4932246;28;20042;-82
2021/12/29 11:21:07;;;;;;;13.98;5.03;;;9.80;99.90;;;;;;4913506;28;20036;-78
2021/12/29 11:23:32;;;;;;;14.23;4.32;;;9.80;99.90;;;;;;4916984;28;20121;-81
2021/12/29 11:26:01;;;;;;;10.75;3.67;;;9.90;99.90;;;;;;4925791;28;20557;-79
2021/12/29 11:28:30;;;;;;;16.05;4.38;;;9.90;99.90;;;;;;4922433;28;20039;-79
2021/12/29 11:30:58;;;;;;;11.95;4.00;;;9.90;99.90;;;;;;4914387;28;20039;-80
2021/12/29 11:33:24;;;;;;;13.10;4.82;;;9.80;99.90;;;;;;4922895;28;20024;-79
2021/12/29 11:35:53;;;;;;;18.88;5.05;;;9.80;99.90;;;;;;4924129;28;20037;-78
2021/12/29 11:38:26;;;;;;;11.02;4.07;;;9.80;99.90;;;;;;4919181;28;20442;-83
2021/12/29 11:41:03;;;;;;;10.07;4.07;;;9.80;99.90;;;;;;4924381;28;20039;-79
2021/12/29 11:43:31;;;;;;;14.00;4.63;;;11.00;99.90;;;;;;4933671;28;20063;-79
2021/12/29 11:45:57;;;;;;;9.45;3.58;;;11.30;99.90;;;;;;4918244;28;20457;-79
2021/12/29 11:48:24;;;;;;;10.50;4.05;;;11.50;99.90;;;;;;4916628;28;20032;-79
2021/12/29 11:51:00;;;;;;;11.70;4.15;;;12.00;99.90;;;;;;4923496;28;20025;-77
2021/12/29 11:53:26;;;;;;;14.05;4.18;;;11.70;99.90;;;;;;4915675;28;20034;-78
2021/12/29 11:56:06;;;;;;;10.07;4.63;;;10.50;99.90;;;;;;4916553;28;20078;-82
2021/12/29 11:58:41;;;;;;;10.60;3.97;;;10.10;99.90;;;;;;4934674;28;20519;-80
2021/12/29 12:01:19;;;;;;;12.50;4.50;;;11.60;99.90;;;;;;4918219;28;20130;-83
2021/12/29 12:03:55;;;;;;;13.40;4.57;;;9.90;99.90;;;;;;4914945;28;20107;-78
2021/12/29 12:06:35;;;;;;;12.20;4.85;;;9.90;99.90;;;;;;4910973;28;20020;-80
2021/12/29 12:09:04;;;;;;;10.90;4.20;;;10.00;99.90;;;;;;4913746;28;20028;-79
2021/12/29 12:11:37;;;;;;;11.98;4.70;;;9.90;99.90;;;;;;4929906;28;20028;-80
2021/12/29 12:14:15;;;;;;;8.45;4.65;;;10.10;99.90;;;;;;4934925;28;20028;-79
2021/12/29 12:16:55;;;;;;;11.90;5.43;;;10.10;99.90;;;;;;4923367;28;20067;-80
2021/12/29 12:19:23;;;;;;;9.45;4.90;;;10.10;99.90;;;;;;4914648;28;20036;-82
2021/12/29 12:22:05;;;;;;;10.55;4.50;;;10.10;99.90;;;;;;4920143;28;20547;-81
2021/12/29 12:24:31;;;;;;;8.15;4.25;;;10.20;99.90;;;;;;4915743;28;20028;-82
2021/12/29 12:26:59;;;;;;;11.93;4.97;;;10.00;99.90;;;;;;4913514;28;20537;-82
2021/12/29 12:29:27;;;;;;;11.40;4.80;;;10.10;99.90;;;;;;4916895;28;20091;-83
2021/12/29 12:32:04;;;;;;;10.55;4.28;;;10.00;99.90;;;;;;4914356;28;20421;-80
2021/12/29 12:34:30;;;;;;;10.63;4.20;;;10.10;99.90;;;;;;4916425;28;20047;-79
2021/12/29 12:36:56;;;;;;;8.20;4.10;;;10.10;99.90;;;;;;4917410;28;20108;-82
2021/12/29 12:39:23;;;;;;;8.15;4.32;;;10.10;99.90;;;;;;4917346;28;21009;-84
2021/12/29 12:41:53;;;;;;;12.35;4.72;;;10.10;99.90;;;;;;4911683;28;20054;-82
2021/12/29 12:44:30;;;;;;;9.65;4.30;;;11.40;99.90;;;;;;4909489;28;20111;-80
2021/12/29 12:47:11;;;;;;;9.48;4.90;;;10.10;99.90;;;;;;4909403;28;20032;-80
2021/12/29 12:49:52;;;;;;;11.32;4.95;;;10.20;99.90;;;;;;4915009;28;20036;-79
2021/12/29 12:52:20;;;;;;;10.82;3.97;;;10.20;99.90;;;;;;4916467;28;20543;-79
2021/12/29 12:54:52;;;;;;;10.02;4.05;;;10.10;99.90;;;;;;4910062;28;20043;-78
2021/12/29 12:57:26;;;;;;;10.00;4.20;;;10.10;99.90;;;;;;4908249;28;20036;-83
2021/12/29 12:59:54;;;;;;;8.40;3.08;;;10.30;99.90;;;;;;4919409;28;20082;-80
2021/12/29 13:02:24;;;;;;;6.07;3.20;;;10.10;99.90;;;;;;4908327;28;20032;-81